Kostantis I — SY3315 — position and weather

sailwx.info

Track history (hours):
 
Tides and Currents Weather Stations Pressure Air Temp Water Temp Dewpoint Dewpoint Depression Visibility Wind Speed Wind Dir Waves Ship Positions

Kostantis I

Last reported at 2018-Jun-21 19:21 UTC. Time now 2018-Jun-24 14:56 UTC.
Position N 40°23' E 024°08'.

Length 28 m; draft 2.5 m.

Type: Fishing. MMSI: 240220000.

Date/timePositionNaut miles runAvg speedWind from/ knotsBaromVisibWave heightAir tempDewpointWater temp
2018-Jun-21 19:21N 40°23' E 024°08'2 4.2
2018-Jun-21 18:57N 40°22' E 024°10'5 9.6
2018-Jun-21 18:28N 40°21' E 024°15'2 3.8
2018-Jun-21 18:00N 40°19' E 024°16'3 6.7
2018-Jun-21 17:31N 40°21' E 024°13'7 0.4
2018-Jun-20 22:59N 40°25' E 024°05'610.5
2018-Jun-20 22:27N 40°22' E 024°11'510.6
2018-Jun-20 21:57N 40°19' E 024°17'1 2.9
2018-Jun-20 21:30N 40°19' E 024°18'0 0.4
2018-Jun-20 21:00N 40°19' E 024°18'0 0.3
2018-Jun-20 20:29N 40°19' E 024°19'1 1.0
2018-Jun-20 19:48N 40°18' E 024°19'0 0.0
2018-Jun-20 19:24N 40°18' E 024°19'0 0.1
2018-Jun-20 18:57N 40°18' E 024°19'0 0.8
2018-Jun-20 18:27N 40°18' E 024°19'3 7.7
2018-Jun-20 18:00N 40°21' E 024°16'  
Track history (hours):
 
Tides and Currents Weather Stations Pressure Air Temp Water Temp Dewpoint Dewpoint Depression Visibility Wind Speed Wind Dir Waves Ship Positions

Kostantis I

Last reported at 2018-Jun-21 19:21 UTC. Time now 2018-Jun-24 14:56 UTC.
Position N 40°23' E 024°08'.

Length 28 m; draft 2.5 m.

Type: Fishing. MMSI: 240220000.

Date/timePositionNaut miles runAvg speedWind from/ knotsBaromVisibWave heightAir tempDewpointWater temp
2018-Jun-21 19:21N 40°23' E 024°08'2 4.2
2018-Jun-21 18:57N 40°22' E 024°10'5 9.6
2018-Jun-21 18:28N 40°21' E 024°15'2 3.8
2018-Jun-21 18:00N 40°19' E 024°16'3 6.7
2018-Jun-21 17:31N 40°21' E 024°13'7 0.4
2018-Jun-20 22:59N 40°25' E 024°05'610.5
2018-Jun-20 22:27N 40°22' E 024°11'510.6
2018-Jun-20 21:57N 40°19' E 024°17'1 2.9
2018-Jun-20 21:30N 40°19' E 024°18'0 0.4
2018-Jun-20 21:00N 40°19' E 024°18'0 0.3
2018-Jun-20 20:29N 40°19' E 024°19'1 1.0
2018-Jun-20 19:48N 40°18' E 024°19'0 0.0
2018-Jun-20 19:24N 40°18' E 024°19'0 0.1
2018-Jun-20 18:57N 40°18' E 024°19'0 0.8
2018-Jun-20 18:27N 40°18' E 024°19'3 7.7
2018-Jun-20 18:00N 40°21' E 024°16'  

Dump ship's entire track history